EWG16E EDDH-LOWG
Flight info
| Callsign | EWG16E |
|---|---|
| Flight time | N/A |
| Altitude | 39000 |
| Route | AMLUH2G AMLUH M852 DENIX DCT ZUCKA DCT ARMUT DCT LAMSI/N0427F330 DCT LEOBE LEOBE2M |
| Aircraft | A319/M-SDE2E3FGIJ1RWXYZ/EB1 |
Departure
| Time | N/A |
|---|---|
| Airport | Hamburg Helmut Schmidt Airport (EDDH) |
Arrival
| Time | 2026-04-26 18:40 |
|---|---|
| Airport | Graz Airport (LOWG) |
| Time | Latitude | Longitude | Altitude | Speed | Heading |
|---|---|---|---|---|---|
| 2026-04-26 18:01 | 50.20324 | 11.98385 | 39273 ft | 463 kts | 158° |
| 2026-04-26 18:02 | 50.15441 | 12.01863 | 39283 ft | 462 kts | 158° |
| 2026-04-26 18:02 | 50.08592 | 12.06735 | 39288 ft | 462 kts | 158° |
| 2026-04-26 18:03 | 50.02752 | 12.10880 | 39285 ft | 462 kts | 158° |
| 2026-04-26 18:03 | 49.96938 | 12.15006 | 39276 ft | 462 kts | 158° |
| 2026-04-26 18:04 | 49.91089 | 12.19127 | 39276 ft | 461 kts | 158° |
| 2026-04-26 18:05 | 49.82313 | 12.25276 | 39270 ft | 461 kts | 158° |
| 2026-04-26 18:05 | 49.76460 | 12.29386 | 39257 ft | 461 kts | 158° |
| 2026-04-26 18:06 | 49.70814 | 12.34084 | 39274 ft | 464 kts | 145° |
| 2026-04-26 18:06 | 49.65727 | 12.40254 | 39266 ft | 464 kts | 143° |
| 2026-04-26 18:07 | 49.60635 | 12.46393 | 39258 ft | 464 kts | 144° |
| 2026-04-26 18:07 | 49.55538 | 12.52496 | 39259 ft | 464 kts | 144° |
| 2026-04-26 18:08 | 49.50436 | 12.58600 | 39247 ft | 464 kts | 144° |
| 2026-04-26 18:08 | 49.45347 | 12.64692 | 39262 ft | 464 kts | 144° |
| 2026-04-26 18:09 | 49.40263 | 12.70776 | 39268 ft | 463 kts | 144° |
| 2026-04-26 18:09 | 49.35175 | 12.76838 | 39259 ft | 463 kts | 144° |
| 2026-04-26 18:10 | 49.30120 | 12.82841 | 39265 ft | 462 kts | 144° |
| 2026-04-26 18:10 | 49.25014 | 12.88878 | 39259 ft | 462 kts | 144° |
| 2026-04-26 18:11 | 49.19920 | 12.94886 | 39249 ft | 462 kts | 144° |
| 2026-04-26 18:11 | 49.14831 | 13.00881 | 39253 ft | 462 kts | 144° |
| 2026-04-26 18:12 | 49.09719 | 13.06875 | 39243 ft | 462 kts | 144° |
| 2026-04-26 18:12 | 49.04608 | 13.12852 | 39240 ft | 462 kts | 144° |
| 2026-04-26 18:13 | 48.99518 | 13.18801 | 38994 ft | 459 kts | 144° |
| 2026-04-26 18:13 | 48.97007 | 13.21731 | 38849 ft | 451 kts | 144° |
| 2026-04-26 18:13 | 48.94541 | 13.24609 | 38704 ft | 443 kts | 144° |
| 2026-04-26 18:14 | 48.89713 | 13.30229 | 38166 ft | 432 kts | 145° |
| 2026-04-26 18:14 | 48.87335 | 13.32981 | 37723 ft | 431 kts | 145° |
| 2026-04-26 18:14 | 48.84951 | 13.35735 | 37230 ft | 431 kts | 146° |
| 2026-04-26 18:14 | 48.82568 | 13.38490 | 36731 ft | 431 kts | 146° |
| 2026-04-26 18:15 | 48.80187 | 13.41246 | 36246 ft | 430 kts | 146° |
| 2026-04-26 18:15 | 48.77801 | 13.44005 | 35737 ft | 430 kts | 146° |
| 2026-04-26 18:15 | 48.75421 | 13.46749 | 35228 ft | 430 kts | 146° |
| 2026-04-26 18:15 | 48.73037 | 13.49492 | 34704 ft | 430 kts | 146° |
| 2026-04-26 18:16 | 48.70652 | 13.52230 | 34203 ft | 431 kts | 147° |
| 2026-04-26 18:16 | 48.65894 | 13.57686 | 33057 ft | 431 kts | 147° |
| 2026-04-26 18:16 | 48.63493 | 13.60442 | 32548 ft | 434 kts | 147° |
| 2026-04-26 18:17 | 48.61095 | 13.63202 | 32049 ft | 436 kts | 147° |
| 2026-04-26 18:17 | 48.58686 | 13.65981 | 31542 ft | 434 kts | 147° |
| 2026-04-26 18:17 | 48.56290 | 13.68749 | 31033 ft | 433 kts | 147° |
| 2026-04-26 18:17 | 48.53899 | 13.71508 | 30548 ft | 431 kts | 147° |
| 2026-04-26 18:18 | 48.51522 | 13.74245 | 30238 ft | 426 kts | 147° |
| 2026-04-26 18:18 | 48.49176 | 13.76940 | 30203 ft | 423 kts | 147° |
| 2026-04-26 18:18 | 48.44476 | 13.82313 | 30218 ft | 425 kts | 147° |
| 2026-04-26 18:19 | 48.39746 | 13.87719 | 30212 ft | 425 kts | 146° |
| 2026-04-26 18:19 | 48.35028 | 13.93092 | 30213 ft | 428 kts | 146° |
| 2026-04-26 18:20 | 48.30505 | 13.98987 | 30205 ft | 432 kts | 140° |
| 2026-04-26 18:20 | 48.26862 | 14.04131 | 30207 ft | 432 kts | 140° |
| 2026-04-26 18:21 | 48.21762 | 14.11407 | 30220 ft | 432 kts | 140° |
| 2026-04-26 18:21 | 48.19582 | 14.14495 | 30060 ft | 429 kts | 140° |
| 2026-04-26 18:21 | 48.17417 | 14.17538 | 29568 ft | 427 kts | 140° |
| 2026-04-26 18:22 | 48.15253 | 14.20556 | 29106 ft | 423 kts | 140° |
| 2026-04-26 18:22 | 48.13128 | 14.23508 | 28642 ft | 420 kts | 140° |
| 2026-04-26 18:22 | 48.10994 | 14.26465 | 28204 ft | 416 kts | 140° |
| 2026-04-26 18:22 | 48.08879 | 14.29402 | 27773 ft | 413 kts | 140° |
| 2026-04-26 18:23 | 48.06784 | 14.32316 | 27349 ft | 410 kts | 140° |
| 2026-04-26 18:23 | 48.04712 | 14.35201 | 26794 ft | 405 kts | 140° |
| 2026-04-26 18:23 | 48.02655 | 14.38060 | 26224 ft | 401 kts | 140° |
| 2026-04-26 18:23 | 48.00618 | 14.40880 | 25665 ft | 397 kts | 140° |
| 2026-04-26 18:24 | 47.98607 | 14.43664 | 25120 ft | 393 kts | 140° |
| 2026-04-26 18:24 | 47.96614 | 14.46421 | 24575 ft | 388 kts | 140° |
| 2026-04-26 18:24 | 47.94641 | 14.49146 | 24038 ft | 385 kts | 140° |
| 2026-04-26 18:24 | 47.92683 | 14.51845 | 23434 ft | 381 kts | 140° |
| 2026-04-26 18:25 | 47.90756 | 14.54497 | 22772 ft | 377 kts | 139° |
| 2026-04-26 18:25 | 47.88832 | 14.57145 | 22095 ft | 374 kts | 139° |
| 2026-04-26 18:25 | 47.86933 | 14.59762 | 21454 ft | 371 kts | 139° |
| 2026-04-26 18:25 | 47.85042 | 14.62368 | 20815 ft | 368 kts | 139° |
| 2026-04-26 18:26 | 47.83173 | 14.64941 | 20183 ft | 366 kts | 139° |
| 2026-04-26 18:26 | 47.81303 | 14.67507 | 19593 ft | 362 kts | 139° |
| 2026-04-26 18:26 | 47.79466 | 14.70022 | 18981 ft | 359 kts | 139° |
| 2026-04-26 18:26 | 47.77634 | 14.72530 | 18376 ft | 356 kts | 139° |
| 2026-04-26 18:27 | 47.75814 | 14.75018 | 17986 ft | 353 kts | 139° |
| 2026-04-26 18:27 | 47.74026 | 14.77459 | 17633 ft | 347 kts | 139° |
| 2026-04-26 18:27 | 47.72247 | 14.79882 | 17256 ft | 346 kts | 139° |
| 2026-04-26 18:27 | 47.70466 | 14.82306 | 17196 ft | 349 kts | 139° |
| 2026-04-26 18:28 | 47.68669 | 14.84750 | 17207 ft | 351 kts | 139° |
| 2026-04-26 18:28 | 47.66868 | 14.87203 | 17196 ft | 351 kts | 138° |
| 2026-04-26 18:28 | 47.65091 | 14.89625 | 17196 ft | 344 kts | 138° |
| 2026-04-26 18:28 | 47.63332 | 14.92021 | 17199 ft | 343 kts | 138° |
| 2026-04-26 18:29 | 47.61597 | 14.94379 | 17202 ft | 343 kts | 138° |
| 2026-04-26 18:29 | 47.59839 | 14.96761 | 17201 ft | 342 kts | 139° |
| 2026-04-26 18:29 | 47.58078 | 14.99138 | 17196 ft | 342 kts | 139° |
| 2026-04-26 18:29 | 47.56329 | 15.01499 | 16741 ft | 338 kts | 139° |
| 2026-04-26 18:30 | 47.54598 | 15.03837 | 16102 ft | 336 kts | 138° |
| 2026-04-26 18:30 | 47.52882 | 15.06158 | 15488 ft | 333 kts | 138° |
| 2026-04-26 18:30 | 47.51178 | 15.08462 | 14875 ft | 331 kts | 139° |
| 2026-04-26 18:30 | 47.49478 | 15.10753 | 14291 ft | 329 kts | 139° |
| 2026-04-26 18:31 | 47.47793 | 15.13022 | 13676 ft | 327 kts | 139° |
| 2026-04-26 18:31 | 47.46136 | 15.15254 | 13044 ft | 324 kts | 139° |
| 2026-04-26 18:31 | 47.44458 | 15.17512 | 12407 ft | 322 kts | 139° |
| 2026-04-26 18:31 | 47.42803 | 15.19733 | 11794 ft | 320 kts | 139° |
| 2026-04-26 18:32 | 47.41185 | 15.21903 | 11245 ft | 317 kts | 140° |
| 2026-04-26 18:32 | 47.39554 | 15.24091 | 10662 ft | 315 kts | 141° |
| 2026-04-26 18:32 | 47.37939 | 15.26255 | 10123 ft | 312 kts | 141° |
| 2026-04-26 18:32 | 47.36338 | 15.28398 | 9468 ft | 309 kts | 141° |
| 2026-04-26 18:33 | 47.34760 | 15.30508 | 8900 ft | 304 kts | 140° |
| 2026-04-26 18:33 | 47.33202 | 15.32589 | 8361 ft | 299 kts | 139° |
| 2026-04-26 18:33 | 47.31597 | 15.34459 | 7828 ft | 292 kts | 153° |
| 2026-04-26 18:33 | 47.29724 | 15.35474 | 7306 ft | 283 kts | 171° |
| 2026-04-26 18:34 | 47.27823 | 15.35975 | 6942 ft | 273 kts | 171° |
| 2026-04-26 18:34 | 47.25975 | 15.36483 | 6576 ft | 266 kts | 169° |
| 2026-04-26 18:34 | 47.24182 | 15.36988 | 6204 ft | 258 kts | 169° |
| 2026-04-26 18:34 | 47.22445 | 15.37483 | 5855 ft | 250 kts | 169° |
| 2026-04-26 18:35 | 47.20791 | 15.37953 | 5536 ft | 240 kts | 169° |
| 2026-04-26 18:35 | 47.19191 | 15.38405 | 5217 ft | 228 kts | 169° |
| 2026-04-26 18:35 | 47.17652 | 15.38833 | 4905 ft | 216 kts | 169° |
| 2026-04-26 18:35 | 47.16235 | 15.39225 | 4618 ft | 204 kts | 168° |
| 2026-04-26 18:36 | 47.14892 | 15.39595 | 4374 ft | 190 kts | 168° |
| 2026-04-26 18:36 | 47.13615 | 15.39948 | 4109 ft | 183 kts | 168° |
| 2026-04-26 18:36 | 47.12381 | 15.40284 | 3830 ft | 178 kts | 168° |
| 2026-04-26 18:36 | 47.11176 | 15.40603 | 3558 ft | 174 kts | 166° |
| 2026-04-26 18:37 | 47.10003 | 15.40921 | 3378 ft | 168 kts | 165° |
| 2026-04-26 18:37 | 47.08881 | 15.41235 | 3193 ft | 161 kts | 165° |
| 2026-04-26 18:37 | 47.07782 | 15.41562 | 2914 ft | 160 kts | 165° |
| 2026-04-26 18:37 | 47.06719 | 15.41875 | 2699 ft | 149 kts | 164° |
| 2026-04-26 18:38 | 47.05716 | 15.42136 | 2452 ft | 144 kts | 165° |
| 2026-04-26 18:38 | 47.04738 | 15.42391 | 2221 ft | 141 kts | 165° |
| 2026-04-26 18:38 | 47.03775 | 15.42659 | 1961 ft | 142 kts | 166° |
| 2026-04-26 18:38 | 47.02807 | 15.42935 | 1758 ft | 142 kts | 167° |
| 2026-04-26 18:39 | 47.01838 | 15.43208 | 1507 ft | 140 kts | 167° |
| 2026-04-26 18:39 | 47.00898 | 15.43462 | 1304 ft | 135 kts | 167° |
| 2026-04-26 18:39 | 46.99993 | 15.43716 | 1122 ft | 126 kts | 167° |
| 2026-04-26 18:39 | 46.99225 | 15.43932 | 1106 ft | 93 kts | 169° |
| 2026-04-26 18:40 | 46.98763 | 15.44057 | 1104 ft | 41 kts | 169° |
| 2026-04-26 18:40 | 46.98551 | 15.44115 | 1098 ft | 25 kts | 169° |
| 2026-04-26 18:40 | 46.98449 | 15.44143 | 1100 ft | 19 kts | 169° |
| 2026-04-26 18:40 | 46.98332 | 15.44194 | 1099 ft | 5 kts | 156° |
| 2026-04-26 18:41 | 46.98328 | 15.44181 | 1099 ft | 2 kts | 292° |
| 2026-04-26 18:41 | 46.98376 | 15.44161 | 1100 ft | 12 kts | 351° |
| 2026-04-26 18:41 | 46.98471 | 15.44138 | 1099 ft | 15 kts | 351° |
| 2026-04-26 18:41 | 46.98585 | 15.44108 | 1101 ft | 18 kts | 348° |
| 2026-04-26 18:42 | 46.98667 | 15.44083 | 1100 ft | 18 kts | 347° |
| 2026-04-26 18:42 | 46.98801 | 15.44050 | 1104 ft | 21 kts | 348° |
| 2026-04-26 18:42 | 46.98948 | 15.44006 | 1104 ft | 22 kts | 348° |
| 2026-04-26 18:42 | 46.99098 | 15.43966 | 1109 ft | 19 kts | 350° |
| 2026-04-26 18:43 | 46.99197 | 15.43942 | 1106 ft | 13 kts | 351° |
| 2026-04-26 18:43 | 46.99270 | 15.43986 | 1109 ft | 13 kts | 47° |
| 2026-04-26 18:43 | 46.99339 | 15.44097 | 1108 ft | 15 kts | 47° |
| 2026-04-26 18:43 | 46.99403 | 15.44195 | 1111 ft | 9 kts | 46° |
| 2026-04-26 18:44 | 46.99452 | 15.44264 | 1107 ft | 10 kts | 28° |
| 2026-04-26 18:44 | 46.99497 | 15.44258 | 1108 ft | 6 kts | 347° |
| 2026-04-26 18:44 | 46.99531 | 15.44249 | 1112 ft | 5 kts | 350° |
| 2026-04-26 18:44 | 46.99563 | 15.44241 | 1110 ft | 4 kts | 350° |
| 2026-04-26 18:45 | 46.99582 | 15.44256 | 1113 ft | 3 kts | 71° |
| 2026-04-26 18:45 | 46.99572 | 15.44271 | 1107 ft | 2 kts | 148° |
| 2026-04-26 18:45 | 46.99557 | 15.44289 | 1112 ft | 2 kts | 129° |
| 2026-04-26 18:45 | 46.99550 | 15.44303 | 1113 ft | 0 kts | 128° |
| 2026-04-26 18:46 | 46.99544 | 15.44316 | 1111 ft | 1 kts | 125° |
| 2026-04-26 18:46 | 46.99535 | 15.44333 | 1110 ft | 2 kts | 125° |
| 2026-04-26 18:46 | 46.99533 | 15.44339 | 1111 ft | 0 kts | 125° |